Kamenomostskiy, Russia
Current Conditions -  °F | °C
As of 3:00 AM on Sunday 23 Nov 2014 (Local Time) from URSS Reporting Station
Scattered Clouds Scattered Clouds  
Wind Chill: 40°   Ceiling: Unl
Heat Index: 46°   Visibility: 6mi
Dew Point: 30°   Wind: 16mph
Humidity: 53%   Direction: 80°E
Pressure: 29.85"   Gusts: NA
Location:  44.18°N, 40.14°E
Report Text: URSS 230000Z 08007MPS 9999 SCT026CB 08/M01 Q1011 NOSIG RMKR02/04007MPS MT OBSC QFE757 06000070 02000070
Loading
Personal Weather Stations






























Interactive Weather Map New forecast layout! Learn more

10-Day Weather Forecast

Advertisements
Track Severe Weather on mobile